This is the latest recevied weather packets stored in our database for station/object SR2ATJ-13. If no packets are shown the sender has not sent any weather packets the latest 10 day(s).
| Time | Temp. | Humidity | Pressure | Rain* | Wind** | Luminosity | Snow |
|---|---|---|---|---|---|---|---|
| 1777620303 | 15° C | 43% | 1027.1 hPa | - | - | - | - |
| 1777619703 | 14.44° C | 44% | 1027 hPa | - | - | - | - |
| 1777619106 | 13.89° C | 45% | 1027.2 hPa | - | - | - | - |
| 1777618502 | 13.89° C | 46% | 1027.2 hPa | - | - | - | - |
| 1777617903 | 13.33° C | 46% | 1027.2 hPa | - | - | - | - |
| 1777617304 | 12.78° C | 46% | 1027.2 hPa | - | - | - | - |
| 1777616704 | 12.22° C | 48% | 1027.2 hPa | - | - | - | - |
| 1777616103 | 12.22° C | 49% | 1027.2 hPa | - | - | - | - |
| 1777615504 | 11.11° C | 50% | 1027.1 hPa | - | - | - | - |
| 1777614903 | 10.56° C | 52% | 1027.2 hPa | - | - | - | - |
| 1777614305 | 10° C | 54% | 1027.2 hPa | - | - | - | - |
| 1777613704 | 9.44° C | 55% | 1027.3 hPa | - | - | - | - |
| 1777613103 | 8.89° C | 56% | 1027.3 hPa | - | - | - | - |
| 1777611905 | 7.78° C | 60% | 1027.4 hPa | - | - | - | - |
| 1777611303 | 7.22° C | 61% | 1027.4 hPa | - | - | - | - |
| 1777610704 | 6.67° C | 64% | 1027.6 hPa | - | - | - | - |
| 1777610104 | 6.11° C | 64% | 1027.5 hPa | - | - | - | - |
| 1777609503 | 5.56° C | 65% | 1027.6 hPa | - | - | - | - |
| 1777608904 | 5° C | 65% | 1027.5 hPa | - | - | - | - |
| 1777608303 | 4.44° C | 66% | 1027.5 hPa | - | - | - | - |
| 1777607703 | 3.89° C | 65% | 1027.4 hPa | - | - | - | - |
| 1777607103 | 3.89° C | 63% | 1027.4 hPa | - | - | - | - |
| 1777606504 | 3.89° C | 63% | 1027.5 hPa | - | - | - | - |
| 1777605304 | 4.44° C | 62% | 1027.4 hPa | - | - | - | - |
| 1777604703 | 4.44° C | 62% | 1027.3 hPa | - | - | - | - |
* Rain since midnight (hover to see other rain measurements)
** Current wind speed in m/s (hover to see current wind gust speed)